Latest Weather Observations for Norseman Airport

IDW60801

Issued at 11:34 am WST Tuesday 29 September 2020 (issued every 10 minutes, with the page automatically refreshed every 10 minutes)

About weather observations | Map of weather stations | Latest weather observations for WA | Other Formats
Station Details ID: 012009 Name: NORSEMAN AERO Lat: -32.21 Lon: 121.75 Height: 262.5 m
Data from the previous 72 hours. | See also: Recent months at Norseman Airport
Date/Time
WST
Temp
°C
App
Temp
°C
Dew
Point
°C
Rel
Hum
%
Delta-T
°C
Wind Press
QNH
hPa
Press
MSL
hPa
Rain since
9am
mm
Dir  Spd
km/h
Gust
km/h
Spd
kts
Gust
kts
29/11:30am 22.5 18.0 7.1 37 8.0 WNW 20 37 11 20 1016.0 1015.7 0.0
29/11:06am 23.1 18.1 8.0 38 8.1 NW 24 43 13 23 1016.3 1016.0 0.0
29/11:00am 22.6 18.0 8.3 40 7.6 NW 22 37 12 20 1016.3 1016.0 0.0
29/10:30am 21.5 17.0 8.4 43 7.0 NW 22 39 12 21 1016.8 1016.6 0.0
29/10:00am 21.3 17.5 8.9 45 6.6 NW 19 30 10 16 1017.4 1017.2 0.0
29/09:30am 19.7 15.7 9.0 50 5.7 NNE 20 30 11 16 1017.9 1017.7 0.0
29/09:00am 18.7 15.1 9.8 56 4.8 N 19 24 10 13 1018.5 1018.3 0.0
29/08:30am 16.8 14.9 10.4 66 3.4 N 11 15 6 8 1018.8 1018.6 0.0
29/08:00am 15.1 13.9 9.5 69 2.9 NNE 6 9 3 5 1019.5 1019.2 0.0
29/07:30am 13.8 13.7 9.6 76 2.2 CALM 0 0 0 0 1019.3 1019.0 0.0
29/07:00am 11.5 11.2 8.7 83 1.4 CALM 0 0 0 0 1018.5 1018.3 0.0
29/06:30am 9.5 9.0 7.9 90 0.8 CALM 0 0 0 0 1018.0 1017.8 0.0
29/06:00am 6.4 5.3 5.0 91 0.6 CALM 0 0 0 0 1017.7 1017.5 0.0
29/05:30am 6.0 4.8 4.6 91 0.6 CALM 0 0 0 0 1017.5 1017.3 0.0
29/05:00am 6.2 5.0 4.5 89 0.7 CALM 0 0 0 0 1017.3 1017.1 0.0
29/04:30am 6.3 5.1 4.8 90 0.7 CALM 0 0 0 0 1017.0 1016.8 0.0
29/04:00am 6.7 5.6 5.2 90 0.7 CALM 0 0 0 0 1017.0 1016.8 0.0
29/03:30am 6.9 5.8 5.1 88 0.8 CALM 0 0 0 0 1017.2 1017.0 0.0
29/03:00am 7.1 6.0 4.9 86 1.0 CALM 0 0 0 0 1017.3 1017.1 0.0
29/02:30am 7.6 6.6 5.4 86 1.0 CALM 0 0 0 0 1017.0 1016.8 0.0
29/02:00am 7.9 6.9 5.4 84 1.1 CALM 0 0 0 0 1016.9 1016.7 0.0
29/01:30am 8.3 7.3 5.6 83 1.2 CALM 0 0 0 0 1016.9 1016.7 0.0
29/01:00am 8.7 6.6 5.6 81 1.4 SSE 6 9 3 5 1017.2 1017.0 0.0
29/12:30am 9.4 7.3 5.6 77 1.8 SSE 6 7 3 4 1017.2 1017.0 0.0
29/12:00am 10.6 8.7 6.6 76 1.9 SSE 6 7 3 4 1017.3 1017.1 0.0
 
Date/Time
WST
Temp
°C
App
Temp
°C
Dew
Point
°C
Rel
Hum
%
Delta-T
°C
Wind Press
QNH
hPa
Press
MSL
hPa
Rain since
9am
mm
Dir  Spd
km/h
Gust
km/h
Spd
kts
Gust
kts
28/11:30pm 11.1 8.7 6.8 75 2.1 S 9 11 5 6 1017.5 1017.3 0.0
28/11:00pm 12.4 10.2 7.9 74 2.2 SSW 9 11 5 6 1017.6 1017.4 0.0
28/10:30pm 12.7 12.1 7.2 69 2.7 CALM 0 2 0 1 1017.6 1017.4 0.0
28/10:00pm 14.5 12.9 8.2 66 3.2 SSW 6 7 3 4 1017.5 1017.3 0.0
28/09:30pm 15.1 13.3 8.1 63 3.6 SE 7 9 4 5 1017.4 1017.2 0.0
28/09:00pm 16.2 13.4 8.7 61 3.9 S 13 20 7 11 1017.4 1017.2 0.0
28/08:30pm 16.9 13.0 9.3 61 4.0 S 20 30 11 16 1017.1 1016.9 0.0
28/08:00pm 17.8 14.0 9.9 60 4.2 S 20 30 11 16 1016.6 1016.3 0.0
28/07:30pm 18.5 14.6 8.7 53 5.2 S 19 24 10 13 1016.2 1015.9 0.0
28/07:00pm 19.8 15.2 1.7 30 8.4 SSW 15 19 8 10 1015.4 1015.1 0.0
28/06:30pm 20.9 15.5 2.2 29 8.8 SW 20 30 11 16 1014.8 1014.6 0.0
28/06:00pm 22.0 14.7 2.7 28 9.3 SW 30 35 16 19 1014.3 1014.1 0.0
28/05:30pm 23.1 17.1 3.1 27 9.7 SW 24 30 13 16 1013.9 1013.7 0.0
28/05:00pm 23.5 17.8 2.9 26 10.0 WSW 22 28 12 15 1013.7 1013.5 0.0
28/04:30pm 24.5 18.2 3.8 26 10.3 WSW 26 35 14 19 1013.5 1013.3 0.0
28/04:00pm 25.5 20.3 3.5 24 11.0 WSW 20 35 11 19 1013.4 1013.1 0.0
28/03:30pm 24.7 18.5 4.5 27 10.2 W 26 35 14 19 1013.3 1013.0 0.0
28/03:00pm 24.1 17.2 4.5 28 9.9 W 30 41 16 22 1013.4 1013.1 0.0
28/02:30pm 25.1 18.7 5.3 28 10.2 WNW 28 44 15 24 1013.6 1013.4 0.0
28/02:00pm 24.0 17.3 5.4 30 9.5 W 30 37 16 20 1013.8 1013.6 0.0
28/01:30pm 24.1 18.5 5.5 30 9.5 W 24 52 13 28 1013.9 1013.7 0.0
28/01:00pm 24.7 19.7 6.4 31 9.6 WNW 22 35 12 19 1014.2 1014.0 0.0
28/12:30pm 23.1 18.2 6.8 35 8.5 WNW 22 33 12 18 1014.8 1014.6 0.0
28/12:00pm 21.9 15.8 6.6 37 7.9 WNW 28 44 15 24 1015.4 1015.1 0.0
28/11:30am 21.6 17.5 6.3 37 7.8 WNW 17 30 9 16 1015.6 1015.3 0.0
28/11:00am 20.8 18.0 8.4 45 6.6 NNW 13 20 7 11 1015.8 1015.5 0.0
28/10:30am 20.2 18.2 8.8 48 6.1 N 9 15 5 8 1016.4 1016.1 0.0
28/10:00am 18.7 16.1 9.2 54 5.0 N 13 17 7 9 1016.8 1016.6 0.0
28/09:30am 16.1 13.7 8.6 61 3.9 N 11 13 6 7 1016.6 1016.3 0.0
28/09:00am 15.3 12.8 9.7 69 2.9 N 13 15 7 8 1016.8 1016.6 0.0
28/08:30am 14.2 11.6 9.4 73 2.5 N 13 15 7 8 1016.9 1016.7 0.0
28/08:00am 13.1 10.5 9.2 77 2.0 N 13 17 7 9 1016.9 1016.7 0.0
28/07:30am 12.6 10.7 9.2 80 1.7 N 9 11 5 6 1016.7 1016.4 0.0
28/07:00am 11.7 10.1 8.9 83 1.4 N 7 9 4 5 1016.7 1016.4 0.0
28/06:30am 10.2 8.6 8.6 90 0.8 ENE 7 9 4 5 1016.3 1016.0 0.0
28/06:00am 8.7 6.9 7.2 90 0.7 NNE 6 7 3 4 1016.1 1015.8 0.0
28/05:30am 8.6 6.2 7.2 91 0.7 NE 9 9 5 5 1015.7 1015.4 0.0
28/05:00am 8.0 5.9 6.5 90 0.7 ENE 7 7 4 4 1015.5 1015.2 0.0
28/04:30am 8.1 7.3 6.7 91 0.7 CALM 0 0 0 0 1015.4 1015.1 0.0
28/04:00am 8.4 7.3 6.9 90 0.7 ESE 2 7 1 4 1015.3 1015.0 0.0
28/03:30am 8.7 8.0 7.0 89 0.8 CALM 0 0 0 0 1015.5 1015.2 0.0
28/03:00am 9.3 8.7 7.3 87 1.0 CALM 0 0 0 0 1015.0 1014.8 0.0
28/02:30am 10.0 9.1 7.6 85 1.2 NE 2 7 1 4 1015.2 1014.9 0.0
28/02:00am 10.9 10.4 7.8 81 1.5 CALM 0 0 0 0 1015.6 1015.3 0.0
28/01:30am 12.5 12.3 9.0 79 1.8 CALM 0 6 0 3 1015.6 1015.3 0.0
28/01:00am 12.8 11.3 9.1 78 1.9 NE 7 13 4 7 1015.4 1015.1 0.0
28/12:30am 13.3 10.3 9.4 77 2.0 E 15 19 8 10 1015.4 1015.1 0.0
28/12:00am 13.7 10.8 9.6 76 2.1 E 15 20 8 11 1015.6 1015.3 0.0
 
Date/Time
WST
Temp
°C
App
Temp
°C
Dew
Point
°C
Rel
Hum
%
Delta-T
°C
Wind Press
QNH
hPa
Press
MSL
hPa
Rain since
9am
mm
Dir  Spd
km/h
Gust
km/h
Spd
kts
Gust
kts
27/11:30pm 14.0 10.7 9.4 74 2.4 ESE 17 22 9 12 1015.6 1015.3 0.0
27/11:00pm 14.4 11.1 9.6 73 2.5 ESE 17 26 9 14 1015.7 1015.4 0.0
27/10:30pm 14.8 11.5 9.6 71 2.7 ESE 17 26 9 14 1016.0 1015.7 0.0
27/10:00pm 15.4 12.5 9.5 68 3.1 ESE 15 26 8 14 1016.1 1015.8 0.0
27/09:30pm 15.9 12.9 9.3 65 3.5 SSE 15 26 8 14 1016.2 1015.9 0.0
27/09:00pm 16.6 13.2 9.1 61 3.9 SSE 17 24 9 13 1016.3 1016.0 0.0
27/08:30pm 16.8 13.7 7.2 53 4.8 S 13 19 7 10 1016.2 1015.9 0.0
27/08:00pm 16.8 14.1 7.2 53 4.8 S 11 13 6 7 1016.0 1015.7 0.0
27/07:30pm 17.3 14.2 7.1 51 5.2 S 13 15 7 8 1015.8 1015.5 0.0
27/07:00pm 17.9 15.5 7.0 49 5.5 S 9 13 5 7 1015.6 1015.3 0.0
27/06:30pm 18.9 16.1 7.0 46 6.1 S 11 15 6 8 1015.4 1015.1 0.0
27/06:00pm 20.0 16.5 7.1 43 6.6 SSW 15 20 8 11 1014.8 1014.6 0.0
27/05:30pm 21.1 17.5 6.6 39 7.4 SSW 15 20 8 11 1014.4 1014.2 0.0
27/05:00pm 22.0 17.6 6.7 37 7.9 SW 19 28 10 15 1014.2 1014.0 0.0
27/04:30pm 22.4 18.4 6.6 36 8.2 SW 17 26 9 14 1014.2 1014.0 0.0
27/04:00pm 22.4 18.8 6.6 36 8.2 WSW 15 26 8 14 1014.0 1013.8 0.0
27/03:30pm 21.8 17.8 6.5 37 7.9 WSW 17 30 9 16 1014.0 1013.8 0.0
27/03:00pm 22.6 18.6 6.8 36 8.2 W 17 28 9 15 1013.9 1013.7 0.0
27/02:30pm 22.0 17.5 7.0 38 7.8 WSW 20 30 11 16 1014.0 1013.8 0.0
27/02:00pm 21.3 16.7 6.4 38 7.6 WSW 20 32 11 17 1013.8 1013.6 0.0
27/01:30pm 21.2 16.3 6.7 39 7.5 WSW 22 33 12 18 1014.2 1014.0 0.0
27/01:00pm 20.1 15.1 6.5 41 6.9 SW 22 32 12 17 1014.0 1013.8 0.0
27/12:30pm 21.2 16.8 7.4 41 7.2 WSW 20 35 11 19 1014.2 1014.0 0.0
27/12:00pm 19.7 15.1 6.4 42 6.7 WSW 20 32 11 17 1014.7 1014.5 0.0
27/11:30am 19.4 15.0 7.2 45 6.3 SW 20 33 11 18 1014.8 1014.6 0.0
27/11:00am 19.3 15.0 7.7 47 6.0 WSW 20 35 11 19 1015.0 1014.8 0.0
27/10:30am 17.9 14.6 8.2 53 5.0 WSW 15 22 8 12 1015.3 1015.0 0.0
27/10:00am 16.4 14.1 9.1 62 3.8 W 11 17 6 9 1015.3 1015.0 0.0
27/09:30am 15.8 13.1 8.8 63 3.6 SW 13 20 7 11 1015.4 1015.1 0.0
27/09:00am 14.9 11.5 9.1 68 3.0 SW 17 24 9 13 1015.5 1015.2 0.0
27/08:30am 14.7 10.8 9.3 70 2.8 SW 20 24 11 13 1015.5 1015.2 0.0
27/08:00am 14.8 11.1 10.0 73 2.5 WSW 20 24 11 13 1015.4 1015.1 0.0
27/07:30am 14.0 11.7 10.4 79 1.9 SSW 13 19 7 10 1015.2 1014.9 0.0
27/07:00am 13.3 11.0 10.5 83 1.5 SSW 13 15 7 8 1014.9 1014.7 0.0
27/06:30am 12.0 11.0 10.2 89 0.9 SSE 6 7 3 4 1014.5 1014.3 0.0
27/06:00am 11.3 10.1 9.6 89 0.9 SSE 6 7 3 4 1014.2 1014.0 0.0
27/05:30am 11.4 10.2 9.5 88 1.0 S 6 7 3 4 1013.9 1013.7 0.0
27/05:00am 11.8 10.4 9.7 87 1.1 SSW 7 11 4 6 1013.4 1013.1 0.0
27/04:30am 11.9 10.4 9.1 83 1.4 SSW 7 7 4 4 1012.9 1012.6 0.0
27/04:00am 12.0 10.1 9.0 82 1.5 SSW 9 11 5 6 1012.7 1012.4 0.0
27/03:30am 12.4 9.5 8.3 76 2.1 SW 13 17 7 9 1012.5 1012.2 0.0
27/03:00am 13.0 10.6 8.5 74 2.3 S 11 15 6 8 1012.1 1011.8 0.0
27/02:30am 12.7 10.5 9.3 80 1.7 WSW 11 17 6 9 1012.1 1011.8 0.0
27/02:00am 12.8 11.2 8.9 77 2.0 SW 7 11 4 6 1011.7 1011.4 0.0
27/01:30am 13.2 11.2 8.5 73 2.4 SW 9 11 5 6 1012.1 1011.8 0.0
27/01:00am 13.9 11.5 8.7 71 2.7 SSW 11 17 6 9 1012.3 1012.0 0.0
27/12:30am 14.9 11.0 8.6 66 3.2 SSW 19 28 10 15 1012.6 1012.3 0.0
27/12:00am 16.2 10.9 6.6 53 4.8 WSW 24 35 13 19 1012.2 1011.9 0.0
 
Date/Time
WST
Temp
°C
App
Temp
°C
Dew
Point
°C
Rel
Hum
%
Delta-T
°C
Wind Press
QNH
hPa
Press
MSL
hPa
Rain since
9am
mm
Dir  Spd
km/h
Gust
km/h
Spd
kts
Gust
kts
26/11:30pm 18.1 13.8 1.2 32 7.6 ENE 13 17 7 9 1011.5 1011.2 0.0
26/11:00pm 19.0 14.6 0.6 29 8.3 ENE 13 17 7 9 1011.7 1011.4 0.0
26/10:30pm 19.3 15.7 0.8 29 8.4 E 9 13 5 7 1011.8 1011.5 0.0
26/10:00pm 19.6 15.2 0.6 28 8.6 NNE 13 22 7 12 1011.7 1011.4 0.0
26/09:30pm 20.2 15.5 1.1 28 8.8 NE 15 24 8 13 1011.6 1011.3 0.0
26/09:00pm 20.5 16.3 1.4 28 8.8 ENE 13 17 7 9 1011.3 1011.0 0.0
26/08:30pm 21.2 14.8 1.0 26 9.3 ENE 24 35 13 19 1010.5 1010.3 0.0
26/08:00pm 21.4 15.8 1.1 26 9.4 ENE 20 30 11 16 1010.3 1010.1 0.0
26/07:30pm 21.7 16.8 1.9 27 9.3 ENE 17 22 9 12 1010.4 1010.2 0.0
26/07:00pm 20.6 15.9 2.9 31 8.4 NE 17 20 9 11 1010.2 1009.9 0.0
26/06:30pm 18.2 16.0 6.1 45 6.0 WNW 7 11 4 6 1010.0 1009.7 0.0
26/06:00pm 19.3 16.7 6.1 42 6.6 SSW 9 13 5 7 1009.8 1009.5 0.0
26/05:30pm 21.1 18.4 5.5 36 7.8 S 9 15 5 8 1009.3 1009.0 0.0
26/05:00pm 22.2 18.5 4.3 31 8.9 SSE 13 17 7 9 1009.3 1009.0 0.0
26/04:30pm 22.4 18.8 4.9 32 8.8 SSE 13 19 7 10 1009.6 1009.3 0.0
26/04:00pm 21.8 17.2 5.7 35 8.2 S 19 24 10 13 1010.0 1009.7 0.0
26/03:30pm 22.2 18.3 5.2 33 8.6 S 15 20 8 11 1010.0 1009.7 0.0
26/03:00pm 20.7 16.5 5.5 37 7.6 S 17 24 9 13 1010.3 1010.1 0.0
26/02:30pm 19.9 15.4 5.9 40 7.0 SSW 19 26 10 14 1010.6 1010.4 0.0
26/02:00pm 20.5 17.3 5.3 37 7.6 SSE 11 15 6 8 1011.2 1010.9 0.0
26/01:30pm 19.5 16.5 5.9 41 6.8 ESE 11 17 6 9 1011.6 1011.3 0.0
26/01:00pm 19.3 16.1 3.1 34 7.7 E 9 19 5 10 1012.3 1012.0 0.0
26/12:30pm 18.2 13.5 2.9 36 7.2 ENE 17 22 9 12 1012.9 1012.6 0.0
26/12:00pm 18.3 13.0 3.0 36 7.2 NE 20 32 11 17 1013.4 1013.1 0.0

Other formats

Comma delimited format used in spreadsheet applications
http://www.bom.gov.au/fwo/IDW60801/IDW60801.95642.axf

JavaScript Object Notation format (JSON) in row-major order
http://www.bom.gov.au/fwo/IDW60801/IDW60801.95642.json

Data quality

Most of these data are generated automatically and are frequently updated. Quality checks on data are not normally performed. It is possible for incorrect values to appear. Refer to information at About Latest Weather Observations and please check the disclaimer before using these data.